sensor_id;sensor_type;location;lat;lon;timestamp;P1;durP1;ratioP1;P2;durP2;ratioP2
15553;SDS011;7878;44.632;10.942;2023-04-25T00:01:10;3.03;;;1.70;;
15553;SDS011;7878;44.632;10.942;2023-04-25T00:03:38;6.57;;;1.53;;
15553;SDS011;7878;44.632;10.942;2023-04-25T00:06:05;3.77;;;1.67;;
15553;SDS011;7878;44.632;10.942;2023-04-25T00:08:31;4.00;;;2.00;;
15553;SDS011;7878;44.632;10.942;2023-04-25T00:10:57;3.37;;;2.00;;
15553;SDS011;7878;44.632;10.942;2023-04-25T00:13:23;3.27;;;1.70;;
15553;SDS011;7878;44.632;10.942;2023-04-25T00:15:50;7.40;;;1.70;;
15553;SDS011;7878;44.632;10.942;2023-04-25T00:18:18;2.87;;;1.40;;
15553;SDS011;7878;44.632;10.942;2023-04-25T00:20:44;4.07;;;1.60;;
15553;SDS011;7878;44.632;10.942;2023-04-25T00:23:12;3.27;;;1.50;;
15553;SDS011;7878;44.632;10.942;2023-04-25T00:25:43;5.77;;;1.70;;
15553;SDS011;7878;44.632;10.942;2023-04-25T00:28:10;3.60;;;2.00;;
15553;SDS011;7878;44.632;10.942;2023-04-25T00:30:36;3.70;;;1.80;;
15553;SDS011;7878;44.632;10.942;2023-04-25T00:33:01;5.13;;;1.63;;
15553;SDS011;7878;44.632;10.942;2023-04-25T00:35:27;4.37;;;1.60;;
15553;SDS011;7878;44.632;10.942;2023-04-25T00:37:53;3.70;;;1.77;;
15553;SDS011;7878;44.632;10.942;2023-04-25T00:40:20;3.63;;;1.73;;
15553;SDS011;7878;44.632;10.942;2023-04-25T00:42:45;6.23;;;2.40;;
15553;SDS011;7878;44.632;10.942;2023-04-25T00:45:12;5.77;;;1.87;;
15553;SDS011;7878;44.632;10.942;2023-04-25T00:47:40;4.40;;;1.90;;
15553;SDS011;7878;44.632;10.942;2023-04-25T00:50:06;1.83;;;1.40;;
15553;SDS011;7878;44.632;10.942;2023-04-25T00:52:33;2.90;;;1.80;;
15553;SDS011;7878;44.632;10.942;2023-04-25T00:54:59;5.57;;;1.73;;
15553;SDS011;7878;44.632;10.942;2023-04-25T00:57:25;2.07;;;1.80;;
15553;SDS011;7878;44.632;10.942;2023-04-25T00:59:51;5.23;;;2.07;;
15553;SDS011;7878;44.632;10.942;2023-04-25T01:02:18;4.17;;;1.80;;
15553;SDS011;7878;44.632;10.942;2023-04-25T01:04:45;6.03;;;2.33;;
15553;SDS011;7878;44.632;10.942;2023-04-25T01:07:12;5.70;;;2.47;;
15553;SDS011;7878;44.632;10.942;2023-04-25T01:09:38;6.60;;;2.53;;
15553;SDS011;7878;44.632;10.942;2023-04-25T01:12:04;6.50;;;2.00;;
15553;SDS011;7878;44.632;10.942;2023-04-25T01:14:30;2.40;;;1.77;;
15553;SDS011;7878;44.632;10.942;2023-04-25T01:16:56;4.43;;;1.90;;
15553;SDS011;7878;44.632;10.942;2023-04-25T01:19:24;5.30;;;2.23;;
15553;SDS011;7878;44.632;10.942;2023-04-25T01:21:50;4.23;;;2.30;;
15553;SDS011;7878;44.632;10.942;2023-04-25T01:24:16;8.90;;;2.20;;
15553;SDS011;7878;44.632;10.942;2023-04-25T01:26:42;6.13;;;2.47;;
15553;SDS011;7878;44.632;10.942;2023-04-25T01:29:17;4.03;;;1.90;;
15553;SDS011;7878;44.632;10.942;2023-04-25T01:31:44;3.43;;;2.00;;
15553;SDS011;7878;44.632;10.942;2023-04-25T01:34:11;3.50;;;2.10;;
15553;SDS011;7878;44.632;10.942;2023-04-25T01:36:37;3.93;;;2.57;;
15553;SDS011;7878;44.632;10.942;2023-04-25T01:39:03;5.27;;;1.93;;
15553;SDS011;7878;44.632;10.942;2023-04-25T01:41:29;3.80;;;2.40;;
15553;SDS011;7878;44.632;10.942;2023-04-25T01:43:55;8.77;;;2.10;;
15553;SDS011;7878;44.632;10.942;2023-04-25T01:46:21;3.97;;;2.20;;
15553;SDS011;7878;44.632;10.942;2023-04-25T01:48:47;4.50;;;2.27;;
15553;SDS011;7878;44.632;10.942;2023-04-25T01:51:12;7.50;;;2.13;;
15553;SDS011;7878;44.632;10.942;2023-04-25T01:53:38;3.50;;;2.10;;
15553;SDS011;7878;44.632;10.942;2023-04-25T01:56:04;4.07;;;2.33;;
15553;SDS011;7878;44.632;10.942;2023-04-25T01:58:30;4.93;;;2.03;;
15553;SDS011;7878;44.632;10.942;2023-04-25T02:00:56;6.27;;;2.33;;
15553;SDS011;7878;44.632;10.942;2023-04-25T02:03:22;4.67;;;2.67;;
15553;SDS011;7878;44.632;10.942;2023-04-25T02:05:47;6.37;;;2.00;;
15553;SDS011;7878;44.632;10.942;2023-04-25T02:08:13;3.63;;;2.17;;
15553;SDS011;7878;44.632;10.942;2023-04-25T02:10:42;5.07;;;2.30;;
15553;SDS011;7878;44.632;10.942;2023-04-25T02:13:07;4.63;;;2.33;;
15553;SDS011;7878;44.632;10.942;2023-04-25T02:15:33;20.03;;;2.70;;
15553;SDS011;7878;44.632;10.942;2023-04-25T02:17:59;3.97;;;2.60;;
15553;SDS011;7878;44.632;10.942;2023-04-25T02:20:25;5.50;;;2.40;;
15553;SDS011;7878;44.632;10.942;2023-04-25T02:22:51;7.20;;;2.43;;
15553;SDS011;7878;44.632;10.942;2023-04-25T02:25:18;4.17;;;2.40;;
15553;SDS011;7878;44.632;10.942;2023-04-25T02:27:45;4.40;;;2.90;;
15553;SDS011;7878;44.632;10.942;2023-04-25T02:30:11;6.90;;;2.60;;
15553;SDS011;7878;44.632;10.942;2023-04-25T02:32:37;8.27;;;2.50;;
15553;SDS011;7878;44.632;10.942;2023-04-25T02:35:04;5.00;;;2.50;;
15553;SDS011;7878;44.632;10.942;2023-04-25T02:37:31;6.30;;;2.53;;
15553;SDS011;7878;44.632;10.942;2023-04-25T02:39:57;7.67;;;2.50;;
15553;SDS011;7878;44.632;10.942;2023-04-25T02:42:22;7.63;;;2.90;;
15553;SDS011;7878;44.632;10.942;2023-04-25T02:44:48;4.97;;;2.50;;
15553;SDS011;7878;44.632;10.942;2023-04-25T02:47:13;5.40;;;2.50;;
15553;SDS011;7878;44.632;10.942;2023-04-25T02:49:39;5.20;;;3.07;;
15553;SDS011;7878;44.632;10.942;2023-04-25T02:52:05;4.67;;;2.80;;
15553;SDS011;7878;44.632;10.942;2023-04-25T02:54:31;4.63;;;2.90;;
15553;SDS011;7878;44.632;10.942;2023-04-25T02:56:56;7.80;;;2.37;;
15553;SDS011;7878;44.632;10.942;2023-04-25T02:59:22;8.73;;;2.77;;
15553;SDS011;7878;44.632;10.942;2023-04-25T03:01:48;6.73;;;2.57;;
15553;SDS011;7878;44.632;10.942;2023-04-25T03:04:14;3.63;;;2.87;;
15553;SDS011;7878;44.632;10.942;2023-04-25T03:06:40;5.53;;;2.57;;
15553;SDS011;7878;44.632;10.942;2023-04-25T03:09:05;3.47;;;2.70;;
15553;SDS011;7878;44.632;10.942;2023-04-25T03:11:31;5.93;;;2.70;;
15553;SDS011;7878;44.632;10.942;2023-04-25T03:13:57;3.47;;;2.70;;
15553;SDS011;7878;44.632;10.942;2023-04-25T03:16:23;3.80;;;2.57;;
15553;SDS011;7878;44.632;10.942;2023-04-25T03:18:49;5.27;;;2.80;;
15553;SDS011;7878;44.632;10.942;2023-04-25T03:21:15;4.93;;;3.00;;
15553;SDS011;7878;44.632;10.942;2023-04-25T03:23:41;5.30;;;3.37;;
15553;SDS011;7878;44.632;10.942;2023-04-25T03:26:07;4.30;;;2.90;;
15553;SDS011;7878;44.632;10.942;2023-04-25T03:28:32;6.13;;;3.13;;
15553;SDS011;7878;44.632;10.942;2023-04-25T03:30:58;3.80;;;2.93;;
15553;SDS011;7878;44.632;10.942;2023-04-25T03:33:24;2.83;;;2.60;;
15553;SDS011;7878;44.632;10.942;2023-04-25T03:35:49;6.10;;;3.20;;
15553;SDS011;7878;44.632;10.942;2023-04-25T03:38:15;3.90;;;2.73;;
15553;SDS011;7878;44.632;10.942;2023-04-25T03:40:41;3.60;;;2.63;;
15553;SDS011;7878;44.632;10.942;2023-04-25T03:43:07;4.53;;;3.77;;
15553;SDS011;7878;44.632;10.942;2023-04-25T03:45:32;5.00;;;2.90;;
15553;SDS011;7878;44.632;10.942;2023-04-25T03:47:58;3.40;;;2.73;;
15553;SDS011;7878;44.632;10.942;2023-04-25T03:50:24;3.23;;;2.90;;
15553;SDS011;7878;44.632;10.942;2023-04-25T03:52:49;3.07;;;2.60;;
15553;SDS011;7878;44.632;10.942;2023-04-25T03:55:15;3.80;;;3.03;;
15553;SDS011;7878;44.632;10.942;2023-04-25T03:57:41;4.17;;;3.10;;
15553;SDS011;7878;44.632;10.942;2023-04-25T04:00:07;5.10;;;3.20;;
15553;SDS011;7878;44.632;10.942;2023-04-25T04:02:33;5.03;;;3.00;;
15553;SDS011;7878;44.632;10.942;2023-04-25T04:04:59;3.40;;;2.83;;
15553;SDS011;7878;44.632;10.942;2023-04-25T04:07:25;4.33;;;3.10;;
15553;SDS011;7878;44.632;10.942;2023-04-25T04:09:51;4.47;;;3.90;;
15553;SDS011;7878;44.632;10.942;2023-04-25T04:12:17;5.23;;;3.07;;
15553;SDS011;7878;44.632;10.942;2023-04-25T04:14:42;5.13;;;3.40;;
15553;SDS011;7878;44.632;10.942;2023-04-25T04:17:08;5.10;;;3.47;;
15553;SDS011;7878;44.632;10.942;2023-04-25T04:19:34;8.90;;;3.83;;
15553;SDS011;7878;44.632;10.942;2023-04-25T04:22:01;5.47;;;3.57;;
15553;SDS011;7878;44.632;10.942;2023-04-25T04:24:26;4.87;;;3.53;;
15553;SDS011;7878;44.632;10.942;2023-04-25T04:26:52;7.00;;;3.70;;
15553;SDS011;7878;44.632;10.942;2023-04-25T04:29:18;9.97;;;4.23;;
15553;SDS011;7878;44.632;10.942;2023-04-25T04:31:49;16.63;;;4.03;;
15553;SDS011;7878;44.632;10.942;2023-04-25T04:34:16;15.20;;;4.00;;
15553;SDS011;7878;44.632;10.942;2023-04-25T04:36:43;11.57;;;3.40;;
15553;SDS011;7878;44.632;10.942;2023-04-25T04:39:12;7.13;;;3.40;;
15553;SDS011;7878;44.632;10.942;2023-04-25T04:41:39;6.03;;;3.97;;
15553;SDS011;7878;44.632;10.942;2023-04-25T04:44:04;4.20;;;3.40;;
15553;SDS011;7878;44.632;10.942;2023-04-25T04:46:31;6.30;;;3.53;;
15553;SDS011;7878;44.632;10.942;2023-04-25T04:49:02;12.67;;;4.10;;
15553;SDS011;7878;44.632;10.942;2023-04-25T04:51:30;6.30;;;4.20;;
15553;SDS011;7878;44.632;10.942;2023-04-25T04:53:56;4.47;;;3.70;;
15553;SDS011;7878;44.632;10.942;2023-04-25T04:56:23;4.73;;;4.13;;
15553;SDS011;7878;44.632;10.942;2023-04-25T04:58:50;5.57;;;3.50;;
15553;SDS011;7878;44.632;10.942;2023-04-25T05:01:17;5.60;;;3.70;;
15553;SDS011;7878;44.632;10.942;2023-04-25T05:03:43;8.43;;;3.57;;
15553;SDS011;7878;44.632;10.942;2023-04-25T05:06:09;9.83;;;3.80;;
15553;SDS011;7878;44.632;10.942;2023-04-25T05:08:35;5.70;;;3.93;;
15553;SDS011;7878;44.632;10.942;2023-04-25T05:11:01;5.40;;;3.30;;
15553;SDS011;7878;44.632;10.942;2023-04-25T05:13:27;3.63;;;3.10;;
15553;SDS011;7878;44.632;10.942;2023-04-25T05:15:53;6.40;;;3.67;;
15553;SDS011;7878;44.632;10.942;2023-04-25T05:18:18;4.27;;;3.47;;
15553;SDS011;7878;44.632;10.942;2023-04-25T05:20:44;6.37;;;4.17;;
15553;SDS011;7878;44.632;10.942;2023-04-25T05:23:10;8.03;;;3.80;;
15553;SDS011;7878;44.632;10.942;2023-04-25T05:25:35;5.10;;;4.03;;
15553;SDS011;7878;44.632;10.942;2023-04-25T05:28:01;7.93;;;3.37;;
15553;SDS011;7878;44.632;10.942;2023-04-25T05:30:27;5.00;;;3.70;;
15553;SDS011;7878;44.632;10.942;2023-04-25T05:32:53;5.10;;;3.90;;
15553;SDS011;7878;44.632;10.942;2023-04-25T05:35:18;4.90;;;3.43;;
15553;SDS011;7878;44.632;10.942;2023-04-25T05:37:44;4.60;;;3.57;;
15553;SDS011;7878;44.632;10.942;2023-04-25T05:40:10;4.03;;;3.20;;
15553;SDS011;7878;44.632;10.942;2023-04-25T05:42:36;7.27;;;4.13;;
15553;SDS011;7878;44.632;10.942;2023-04-25T05:45:02;8.73;;;4.00;;
15553;SDS011;7878;44.632;10.942;2023-04-25T05:47:28;4.20;;;3.50;;
15553;SDS011;7878;44.632;10.942;2023-04-25T05:49:53;5.00;;;4.03;;
15553;SDS011;7878;44.632;10.942;2023-04-25T05:52:19;5.40;;;3.97;;
15553;SDS011;7878;44.632;10.942;2023-04-25T05:54:45;4.93;;;3.87;;
15553;SDS011;7878;44.632;10.942;2023-04-25T05:57:22;6.00;;;3.93;;
15553;SDS011;7878;44.632;10.942;2023-04-25T05:59:49;7.13;;;4.10;;
15553;SDS011;7878;44.632;10.942;2023-04-25T06:02:15;6.20;;;4.27;;
15553;SDS011;7878;44.632;10.942;2023-04-25T06:04:41;6.23;;;3.77;;
15553;SDS011;7878;44.632;10.942;2023-04-25T06:07:07;5.57;;;4.10;;
15553;SDS011;7878;44.632;10.942;2023-04-25T06:09:33;5.70;;;3.43;;
15553;SDS011;7878;44.632;10.942;2023-04-25T06:11:59;4.43;;;3.37;;
15553;SDS011;7878;44.632;10.942;2023-04-25T06:14:25;4.87;;;3.27;;
15553;SDS011;7878;44.632;10.942;2023-04-25T06:16:51;5.80;;;3.23;;
15553;SDS011;7878;44.632;10.942;2023-04-25T06:19:17;7.37;;;3.83;;
15553;SDS011;7878;44.632;10.942;2023-04-25T06:21:43;7.23;;;4.00;;
15553;SDS011;7878;44.632;10.942;2023-04-25T06:24:09;5.70;;;3.50;;
15553;SDS011;7878;44.632;10.942;2023-04-25T06:26:35;5.63;;;3.60;;
15553;SDS011;7878;44.632;10.942;2023-04-25T06:29:00;4.73;;;3.40;;
15553;SDS011;7878;44.632;10.942;2023-04-25T06:31:26;4.00;;;3.17;;
15553;SDS011;7878;44.632;10.942;2023-04-25T06:33:53;5.97;;;3.17;;
15553;SDS011;7878;44.632;10.942;2023-04-25T06:36:20;3.90;;;3.07;;
15553;SDS011;7878;44.632;10.942;2023-04-25T06:38:50;9.20;;;3.90;;
15553;SDS011;7878;44.632;10.942;2023-04-25T06:41:17;7.30;;;3.50;;
15553;SDS011;7878;44.632;10.942;2023-04-25T06:43:43;6.13;;;3.20;;
15553;SDS011;7878;44.632;10.942;2023-04-25T06:46:08;5.90;;;3.37;;
15553;SDS011;7878;44.632;10.942;2023-04-25T06:48:34;4.17;;;3.77;;
15553;SDS011;7878;44.632;10.942;2023-04-25T06:51:00;4.30;;;3.27;;
15553;SDS011;7878;44.632;10.942;2023-04-25T06:53:25;4.37;;;3.10;;
15553;SDS011;7878;44.632;10.942;2023-04-25T06:55:51;6.60;;;3.70;;
15553;SDS011;7878;44.632;10.942;2023-04-25T06:58:17;7.67;;;3.53;;
15553;SDS011;7878;44.632;10.942;2023-04-25T07:00:43;7.33;;;3.70;;
15553;SDS011;7878;44.632;10.942;2023-04-25T07:03:08;3.97;;;3.63;;
15553;SDS011;7878;44.632;10.942;2023-04-25T07:05:34;4.93;;;3.20;;
15553;SDS011;7878;44.632;10.942;2023-04-25T07:08:00;3.70;;;2.90;;
15553;SDS011;7878;44.632;10.942;2023-04-25T07:10:26;5.00;;;2.73;;
15553;SDS011;7878;44.632;10.942;2023-04-25T07:12:51;4.67;;;2.87;;
15553;SDS011;7878;44.632;10.942;2023-04-25T07:15:17;3.83;;;2.80;;
15553;SDS011;7878;44.632;10.942;2023-04-25T07:17:43;6.73;;;3.37;;
15553;SDS011;7878;44.632;10.942;2023-04-25T07:20:08;6.53;;;3.37;;
15553;SDS011;7878;44.632;10.942;2023-04-25T07:22:35;5.17;;;3.30;;
15553;SDS011;7878;44.632;10.942;2023-04-25T07:25:00;4.47;;;3.57;;
15553;SDS011;7878;44.632;10.942;2023-04-25T07:27:26;11.90;;;3.80;;
15553;SDS011;7878;44.632;10.942;2023-04-25T07:29:52;5.75;;;3.72;;
15553;SDS011;7878;44.632;10.942;2023-04-25T07:32:18;19.05;;;3.83;;
15553;SDS011;7878;44.632;10.942;2023-04-25T07:34:44;8.73;;;4.28;;
15553;SDS011;7878;44.632;10.942;2023-04-25T07:37:10;9.02;;;3.58;;
15553;SDS011;7878;44.632;10.942;2023-04-25T07:39:36;6.05;;;3.92;;
15553;SDS011;7878;44.632;10.942;2023-04-25T07:42:02;7.78;;;4.25;;
15553;SDS011;7878;44.632;10.942;2023-04-25T07:44:28;5.18;;;4.63;;
15553;SDS011;7878;44.632;10.942;2023-04-25T07:46:55;6.97;;;4.22;;
15553;SDS011;7878;44.632;10.942;2023-04-25T07:49:21;7.55;;;4.55;;
15553;SDS011;7878;44.632;10.942;2023-04-25T07:51:47;7.35;;;4.85;;
15553;SDS011;7878;44.632;10.942;2023-04-25T07:54:13;5.35;;;4.03;;
15553;SDS011;7878;44.632;10.942;2023-04-25T07:56:40;7.15;;;3.00;;
15553;SDS011;7878;44.632;10.942;2023-04-25T07:59:06;3.45;;;1.80;;
15553;SDS011;7878;44.632;10.942;2023-04-25T08:01:33;1.70;;;1.40;;
15553;SDS011;7878;44.632;10.942;2023-04-25T08:03:59;1.27;;;0.80;;
15553;SDS011;7878;44.632;10.942;2023-04-25T08:06:24;2.57;;;1.17;;
15553;SDS011;7878;44.632;10.942;2023-04-25T08:08:50;1.70;;;1.00;;
15553;SDS011;7878;44.632;10.942;2023-04-25T08:11:16;2.87;;;0.80;;
15553;SDS011;7878;44.632;10.942;2023-04-25T08:13:42;3.43;;;1.00;;
15553;SDS011;7878;44.632;10.942;2023-04-25T08:16:07;1.83;;;0.73;;
15553;SDS011;7878;44.632;10.942;2023-04-25T08:18:33;2.23;;;0.87;;
15553;SDS011;7878;44.632;10.942;2023-04-25T08:20:58;0.70;;;0.70;;
15553;SDS011;7878;44.632;10.942;2023-04-25T08:23:24;1.67;;;0.97;;
15553;SDS011;7878;44.632;10.942;2023-04-25T08:25:50;3.67;;;0.70;;
15553;SDS011;7878;44.632;10.942;2023-04-25T08:28:16;0.93;;;0.53;;
15553;SDS011;7878;44.632;10.942;2023-04-25T08:30:41;1.63;;;0.80;;
15553;SDS011;7878;44.632;10.942;2023-04-25T08:33:07;4.77;;;0.67;;
15553;SDS011;7878;44.632;10.942;2023-04-25T08:35:33;0.80;;;0.70;;
15553;SDS011;7878;44.632;10.942;2023-04-25T08:37:58;1.43;;;0.73;;
15553;SDS011;7878;44.632;10.942;2023-04-25T08:40:26;0.77;;;0.60;;
15553;SDS011;7878;44.632;10.942;2023-04-25T08:42:55;2.60;;;0.57;;
15553;SDS011;7878;44.632;10.942;2023-04-25T08:45:22;1.83;;;0.70;;
15553;SDS011;7878;44.632;10.942;2023-04-25T08:47:48;3.13;;;0.67;;
15553;SDS011;7878;44.632;10.942;2023-04-25T08:50:17;6.30;;;0.90;;
15553;SDS011;7878;44.632;10.942;2023-04-25T08:52:46;1.93;;;0.80;;
15553;SDS011;7878;44.632;10.942;2023-04-25T08:55:14;0.83;;;0.70;;
15553;SDS011;7878;44.632;10.942;2023-04-25T08:57:41;1.30;;;0.60;;
15553;SDS011;7878;44.632;10.942;2023-04-25T09:00:10;0.50;;;0.50;;
15553;SDS011;7878;44.632;10.942;2023-04-25T09:02:40;1.60;;;0.70;;
15553;SDS011;7878;44.632;10.942;2023-04-25T09:05:08;1.17;;;0.57;;
15553;SDS011;7878;44.632;10.942;2023-04-25T09:07:37;1.73;;;0.63;;
15553;SDS011;7878;44.632;10.942;2023-04-25T09:10:03;2.23;;;0.63;;
15553;SDS011;7878;44.632;10.942;2023-04-25T09:12:29;1.77;;;0.83;;
15553;SDS011;7878;44.632;10.942;2023-04-25T09:17:31;0.93;;;0.70;;
15553;SDS011;7878;44.632;10.942;2023-04-25T09:20:05;4.53;;;1.10;;
15553;SDS011;7878;44.632;10.942;2023-04-25T09:22:35;0.93;;;0.93;;
15553;SDS011;7878;44.632;10.942;2023-04-25T09:25:09;2.67;;;1.13;;
15553;SDS011;7878;44.632;10.942;2023-04-25T09:27:36;0.90;;;0.60;;
15553;SDS011;7878;44.632;10.942;2023-04-25T09:30:15;5.13;;;0.90;;
15553;SDS011;7878;44.632;10.942;2023-04-25T09:32:42;3.67;;;0.77;;
15553;SDS011;7878;44.632;10.942;2023-04-25T09:35:08;0.80;;;0.80;;
15553;SDS011;7878;44.632;10.942;2023-04-25T09:37:34;1.10;;;0.80;;
15553;SDS011;7878;44.632;10.942;2023-04-25T09:40:00;0.55;;;0.40;;
15553;SDS011;7878;44.632;10.942;2023-04-25T09:42:31;0.70;;;0.70;;
15553;SDS011;7878;44.632;10.942;2023-04-25T09:44:59;1.27;;;1.00;;
15553;SDS011;7878;44.632;10.942;2023-04-25T09:47:29;5.15;;;1.25;;
15553;SDS011;7878;44.632;10.942;2023-04-25T09:49:54;7.53;;;1.15;;
15553;SDS011;7878;44.632;10.942;2023-04-25T09:52:21;1.88;;;0.77;;
15553;SDS011;7878;44.632;10.942;2023-04-25T09:54:48;1.45;;;0.70;;
15553;SDS011;7878;44.632;10.942;2023-04-25T09:59:48;2.72;;;0.73;;
15553;SDS011;7878;44.632;10.942;2023-04-25T10:02:14;0.60;;;0.60;;
15553;SDS011;7878;44.632;10.942;2023-04-25T10:04:42;2.58;;;0.70;;
15553;SDS011;7878;44.632;10.942;2023-04-25T10:07:12;0.60;;;0.60;;
15553;SDS011;7878;44.632;10.942;2023-04-25T10:09:39;0.70;;;0.70;;
15553;SDS011;7878;44.632;10.942;2023-04-25T10:12:06;1.50;;;1.20;;
15553;SDS011;7878;44.632;10.942;2023-04-25T10:14:33;1.40;;;0.90;;
15553;SDS011;7878;44.632;10.942;2023-04-25T10:16:59;0.73;;;0.73;;
15553;SDS011;7878;44.632;10.942;2023-04-25T10:19:25;1.90;;;0.52;;
15553;SDS011;7878;44.632;10.942;2023-04-25T10:21:52;0.90;;;0.60;;
15553;SDS011;7878;44.632;10.942;2023-04-25T10:24:30;3.22;;;0.90;;
15553;SDS011;7878;44.632;10.942;2023-04-25T10:26:57;1.80;;;1.02;;
15553;SDS011;7878;44.632;10.942;2023-04-25T10:29:26;3.70;;;1.70;;
15553;SDS011;7878;44.632;10.942;2023-04-25T10:31:52;1.65;;;1.33;;
15553;SDS011;7878;44.632;10.942;2023-04-25T10:34:17;2.60;;;1.10;;
15553;SDS011;7878;44.632;10.942;2023-04-25T10:36:53;1.83;;;1.40;;
15553;SDS011;7878;44.632;10.942;2023-04-25T10:39:22;5.50;;;1.48;;
15553;SDS011;7878;44.632;10.942;2023-04-25T10:41:58;2.10;;;1.10;;
15553;SDS011;7878;44.632;10.942;2023-04-25T10:44:27;1.00;;;0.93;;
15553;SDS011;7878;44.632;10.942;2023-04-25T10:46:58;1.60;;;1.23;;
15553;SDS011;7878;44.632;10.942;2023-04-25T10:49:29;1.95;;;1.23;;
15553;SDS011;7878;44.632;10.942;2023-04-25T10:54:57;1.80;;;1.00;;
15553;SDS011;7878;44.632;10.942;2023-04-25T11:02:52;1.30;;;0.90;;
15553;SDS011;7878;44.632;10.942;2023-04-25T11:05:23;1.20;;;1.10;;
15553;SDS011;7878;44.632;10.942;2023-04-25T11:07:53;4.53;;;1.00;;
15553;SDS011;7878;44.632;10.942;2023-04-25T11:10:24;0.98;;;0.63;;
15553;SDS011;7878;44.632;10.942;2023-04-25T11:12:55;0.95;;;0.82;;
15553;SDS011;7878;44.632;10.942;2023-04-25T11:15:21;1.83;;;1.20;;
15553;SDS011;7878;44.632;10.942;2023-04-25T11:17:47;2.05;;;1.33;;
15553;SDS011;7878;44.632;10.942;2023-04-25T11:20:13;1.40;;;1.30;;
15553;SDS011;7878;44.632;10.942;2023-04-25T11:22:40;4.07;;;2.08;;
15553;SDS011;7878;44.632;10.942;2023-04-25T11:25:10;1.92;;;1.40;;
15553;SDS011;7878;44.632;10.942;2023-04-25T11:27:38;1.92;;;1.13;;
15553;SDS011;7878;44.632;10.942;2023-04-25T11:30:23;3.10;;;1.20;;
15553;SDS011;7878;44.632;10.942;2023-04-25T11:32:50;1.13;;;0.82;;
15553;SDS011;7878;44.632;10.942;2023-04-25T11:35:17;2.17;;;1.77;;
15553;SDS011;7878;44.632;10.942;2023-04-25T11:37:43;2.05;;;1.15;;
15553;SDS011;7878;44.632;10.942;2023-04-25T11:40:10;1.52;;;1.00;;
15553;SDS011;7878;44.632;10.942;2023-04-25T11:42:42;1.08;;;0.85;;
15553;SDS011;7878;44.632;10.942;2023-04-25T11:45:09;1.50;;;0.90;;
15553;SDS011;7878;44.632;10.942;2023-04-25T11:47:36;1.67;;;1.10;;
15553;SDS011;7878;44.632;10.942;2023-04-25T11:50:05;0.70;;;0.70;;
15553;SDS011;7878;44.632;10.942;2023-04-25T11:55:09;0.77;;;0.77;;
15553;SDS011;7878;44.632;10.942;2023-04-25T11:57:39;0.85;;;0.77;;
15553;SDS011;7878;44.632;10.942;2023-04-25T12:00:15;1.45;;;0.80;;
15553;SDS011;7878;44.632;10.942;2023-04-25T12:02:54;2.58;;;1.08;;
15553;SDS011;7878;44.632;10.942;2023-04-25T12:05:26;2.42;;;1.75;;
15553;SDS011;7878;44.632;10.942;2023-04-25T12:07:53;1.38;;;1.27;;
15553;SDS011;7878;44.632;10.942;2023-04-25T12:10:19;0.93;;;0.90;;
15553;SDS011;7878;44.632;10.942;2023-04-25T12:12:47;0.82;;;0.80;;
15553;SDS011;7878;44.632;10.942;2023-04-25T12:15:14;2.67;;;0.90;;
15553;SDS011;7878;44.632;10.942;2023-04-25T12:17:49;2.80;;;1.30;;
15553;SDS011;7878;44.632;10.942;2023-04-25T12:20:16;2.97;;;1.08;;
15553;SDS011;7878;44.632;10.942;2023-04-25T12:22:45;2.80;;;1.35;;
15553;SDS011;7878;44.632;10.942;2023-04-25T12:25:12;2.45;;;1.10;;
15553;SDS011;7878;44.632;10.942;2023-04-25T12:27:39;1.25;;;0.80;;
15553;SDS011;7878;44.632;10.942;2023-04-25T12:30:07;1.30;;;1.10;;
15553;SDS011;7878;44.632;10.942;2023-04-25T12:32:34;1.60;;;0.90;;
15553;SDS011;7878;44.632;10.942;2023-04-25T12:35:00;0.75;;;0.75;;
15553;SDS011;7878;44.632;10.942;2023-04-25T12:37:26;2.20;;;1.00;;
15553;SDS011;7878;44.632;10.942;2023-04-25T12:39:53;0.70;;;0.70;;
15553;SDS011;7878;44.632;10.942;2023-04-25T12:42:19;1.15;;;0.80;;
15553;SDS011;7878;44.632;10.942;2023-04-25T12:44:44;2.22;;;1.02;;
15553;SDS011;7878;44.632;10.942;2023-04-25T12:47:11;1.25;;;0.90;;
15553;SDS011;7878;44.632;10.942;2023-04-25T12:49:37;2.33;;;0.70;;
15553;SDS011;7878;44.632;10.942;2023-04-25T12:52:02;1.23;;;0.80;;
15553;SDS011;7878;44.632;10.942;2023-04-25T12:54:28;1.40;;;0.77;;
15553;SDS011;7878;44.632;10.942;2023-04-25T12:56:54;5.03;;;0.68;;
15553;SDS011;7878;44.632;10.942;2023-04-25T12:59:20;1.45;;;0.70;;
15553;SDS011;7878;44.632;10.942;2023-04-25T13:01:46;2.88;;;1.05;;
15553;SDS011;7878;44.632;10.942;2023-04-25T13:04:12;2.22;;;0.77;;
15553;SDS011;7878;44.632;10.942;2023-04-25T13:06:37;1.55;;;0.77;;
15553;SDS011;7878;44.632;10.942;2023-04-25T13:09:03;1.23;;;0.80;;
15553;SDS011;7878;44.632;10.942;2023-04-25T13:11:29;0.80;;;0.65;;
15553;SDS011;7878;44.632;10.942;2023-04-25T13:13:55;0.82;;;0.75;;
15553;SDS011;7878;44.632;10.942;2023-04-25T13:16:21;0.73;;;0.73;;
15553;SDS011;7878;44.632;10.942;2023-04-25T13:18:47;1.70;;;0.80;;
15553;SDS011;7878;44.632;10.942;2023-04-25T13:21:13;1.77;;;0.80;;
15553;SDS011;7878;44.632;10.942;2023-04-25T13:23:40;0.63;;;0.63;;
15553;SDS011;7878;44.632;10.942;2023-04-25T13:26:07;0.77;;;0.70;;
15553;SDS011;7878;44.632;10.942;2023-04-25T13:28:33;0.60;;;0.60;;
15553;SDS011;7878;44.632;10.942;2023-04-25T13:30:59;0.90;;;0.68;;
15553;SDS011;7878;44.632;10.942;2023-04-25T13:33:24;0.60;;;0.60;;
15553;SDS011;7878;44.632;10.942;2023-04-25T13:35:50;1.20;;;0.70;;
15553;SDS011;7878;44.632;10.942;2023-04-25T13:38:21;1.70;;;1.02;;
15553;SDS011;7878;44.632;10.942;2023-04-25T13:40:47;2.13;;;0.82;;
15553;SDS011;7878;44.632;10.942;2023-04-25T13:43:13;2.63;;;0.90;;
15553;SDS011;7878;44.632;10.942;2023-04-25T13:45:39;0.60;;;0.60;;
15553;SDS011;7878;44.632;10.942;2023-04-25T13:48:05;2.78;;;0.80;;
15553;SDS011;7878;44.632;10.942;2023-04-25T13:50:31;1.10;;;0.90;;
15553;SDS011;7878;44.632;10.942;2023-04-25T13:52:57;1.23;;;0.80;;
15553;SDS011;7878;44.632;10.942;2023-04-25T13:55:22;1.52;;;1.00;;
15553;SDS011;7878;44.632;10.942;2023-04-25T13:57:48;3.30;;;1.20;;
15553;SDS011;7878;44.632;10.942;2023-04-25T14:00:14;0.90;;;0.88;;
15553;SDS011;7878;44.632;10.942;2023-04-25T14:02:40;0.82;;;0.82;;
15553;SDS011;7878;44.632;10.942;2023-04-25T14:05:05;0.80;;;0.80;;
15553;SDS011;7878;44.632;10.942;2023-04-25T14:07:32;1.17;;;0.90;;
15553;SDS011;7878;44.632;10.942;2023-04-25T14:09:59;0.95;;;0.80;;
15553;SDS011;7878;44.632;10.942;2023-04-25T14:12:25;1.42;;;0.80;;
15553;SDS011;7878;44.632;10.942;2023-04-25T14:14:51;3.78;;;0.90;;
15553;SDS011;7878;44.632;10.942;2023-04-25T14:17:18;1.05;;;0.95;;
15553;SDS011;7878;44.632;10.942;2023-04-25T14:19:44;5.07;;;1.20;;
15553;SDS011;7878;44.632;10.942;2023-04-25T14:22:12;3.55;;;0.93;;
15553;SDS011;7878;44.632;10.942;2023-04-25T14:24:39;1.55;;;1.02;;
15553;SDS011;7878;44.632;10.942;2023-04-25T14:27:05;1.65;;;0.90;;
15553;SDS011;7878;44.632;10.942;2023-04-25T14:29:31;1.83;;;1.00;;
15553;SDS011;7878;44.632;10.942;2023-04-25T14:31:56;1.92;;;0.98;;
15553;SDS011;7878;44.632;10.942;2023-04-25T14:34:23;0.93;;;0.93;;
15553;SDS011;7878;44.632;10.942;2023-04-25T14:36:50;2.42;;;0.90;;
15553;SDS011;7878;44.632;10.942;2023-04-25T14:39:16;1.17;;;0.80;;
15553;SDS011;7878;44.632;10.942;2023-04-25T14:41:42;4.13;;;0.90;;
15553;SDS011;7878;44.632;10.942;2023-04-25T14:44:08;1.10;;;0.77;;
15553;SDS011;7878;44.632;10.942;2023-04-25T14:46:34;4.22;;;1.02;;
15553;SDS011;7878;44.632;10.942;2023-04-25T14:49:00;1.75;;;0.90;;
15553;SDS011;7878;44.632;10.942;2023-04-25T14:51:26;0.63;;;0.63;;
15553;SDS011;7878;44.632;10.942;2023-04-25T14:53:51;2.67;;;1.00;;
15553;SDS011;7878;44.632;10.942;2023-04-25T14:56:17;0.52;;;0.50;;
15553;SDS011;7878;44.632;10.942;2023-04-25T14:58:43;0.77;;;0.70;;
15553;SDS011;7878;44.632;10.942;2023-04-25T15:01:10;1.90;;;0.82;;